createdAt,value
2022-12-03T00:00:43.523Z,102153.13
2022-12-03T00:03:12.170Z,102138.06
2022-12-03T00:05:48.308Z,102147.53
2022-12-03T00:08:17.444Z,102143.50
2022-12-03T00:10:46.142Z,102139.66
2022-12-03T00:13:14.503Z,102142.19
2022-12-03T00:15:42.934Z,102142.81
2022-12-03T00:18:11.355Z,102141.84
2022-12-03T00:20:39.772Z,102137.66
2022-12-03T00:23:09.169Z,102132.59
2022-12-03T00:25:37.577Z,102126.91
2022-12-03T00:28:05.957Z,102133.09
2022-12-03T00:30:34.357Z,102130.13
2022-12-03T00:33:02.880Z,102132.72
2022-12-03T00:35:31.285Z,102128.47
2022-12-03T00:37:59.687Z,102112.91
2022-12-03T00:40:28.311Z,102118.69
2022-12-03T00:42:56.841Z,102123.97
2022-12-03T00:45:25.162Z,102113.34
2022-12-03T00:47:53.749Z,102106.31
2022-12-03T00:50:22.147Z,102102.56
2022-12-03T00:52:51.658Z,102110.63
2022-12-03T00:55:20.056Z,102107.88
2022-12-03T00:57:48.569Z,102107.22
2022-12-03T01:00:17.691Z,102110.31
2022-12-03T01:02:46.069Z,102106.47
2022-12-03T01:05:14.489Z,102111.69
2022-12-03T01:07:43.040Z,102115.13
2022-12-03T01:10:12.623Z,102113.03
2022-12-03T01:12:41.166Z,102123.13
2022-12-03T01:15:10.616Z,102112.00
2022-12-03T01:17:39.175Z,102114.94
2022-12-03T01:20:09.382Z,102112.94
2022-12-03T01:22:37.854Z,102108.34
2022-12-03T01:25:06.784Z,102111.59
2022-12-03T01:27:35.296Z,102107.47
2022-12-03T01:30:05.096Z,102112.53
2022-12-03T01:32:33.524Z,102120.97
2022-12-03T01:35:02.039Z,102110.56
2022-12-03T01:37:30.600Z,102119.13
2022-12-03T01:39:59.054Z,102113.56
2022-12-03T01:42:31.534Z,102111.72
2022-12-03T01:45:01.386Z,102116.16
2022-12-03T01:47:35.212Z,102111.91
2022-12-03T01:50:08.437Z,102111.16
2022-12-03T01:52:39.182Z,102097.63
2022-12-03T01:55:13.672Z,102098.13
2022-12-03T01:57:47.407Z,102101.91
2022-12-03T02:00:18.536Z,102097.91
2022-12-03T02:02:49.884Z,102102.41
2022-12-03T02:05:22.335Z,102096.38
2022-12-03T02:07:50.859Z,102093.94
2022-12-03T02:10:25.381Z,102104.50
2022-12-03T02:13:01.487Z,102097.00
2022-12-03T02:15:30.052Z,102104.31
2022-12-03T02:17:59.695Z,102111.94
2022-12-03T02:20:28.207Z,102097.16
2022-12-03T02:23:10.697Z,102098.19
2022-12-03T02:25:39.500Z,102100.25
2022-12-03T02:28:09.655Z,102094.09
2022-12-03T02:30:38.247Z,102091.44
2022-12-03T02:33:06.817Z,102080.13
2022-12-03T02:35:37.340Z,102086.66
2022-12-03T02:38:08.497Z,102094.19
2022-12-03T02:40:37.370Z,102084.22
2022-12-03T02:43:06.096Z,102084.53
2022-12-03T02:45:39.455Z,102081.09
2022-12-03T02:48:25.515Z,102083.41
2022-12-03T02:50:57.325Z,102071.13
2022-12-03T02:53:36.277Z,102075.31
2022-12-03T02:56:06.144Z,102075.63
2022-12-03T02:58:35.196Z,102076.69
2022-12-03T03:01:05.084Z,102079.63
2022-12-03T03:03:34.539Z,102074.72
2022-12-03T03:06:06.123Z,102071.72
2022-12-03T03:08:35.434Z,102075.66
2022-12-03T03:11:04.338Z,102079.16
2022-12-03T03:13:33.924Z,102069.81
2022-12-03T03:16:04.452Z,102066.78
2022-12-03T03:18:34.305Z,102068.34
2022-12-03T03:21:04.086Z,102064.25
2022-12-03T03:23:32.571Z,102060.19
2022-12-03T03:26:06.057Z,102061.78
2022-12-03T03:28:37.855Z,102072.59
2022-12-03T03:31:08.340Z,102068.56
2022-12-03T03:33:39.229Z,102063.91
2022-12-03T03:36:08.599Z,102062.72
2022-12-03T03:38:38.473Z,102046.84
2022-12-03T03:41:09.210Z,102056.09
2022-12-03T03:43:39.303Z,102046.94
2022-12-03T03:46:08.259Z,102059.31
2022-12-03T03:48:37.017Z,102048.16
2022-12-03T03:51:09.324Z,102048.16
2022-12-03T03:53:44.848Z,102052.38
2022-12-03T03:56:15.591Z,102057.78
2022-12-03T03:58:44.006Z,102047.63
2022-12-03T04:01:14.081Z,102038.44
2022-12-03T04:03:42.636Z,102040.88
2022-12-03T04:06:11.315Z,102040.34
2022-12-03T04:08:39.717Z,102041.41
2022-12-03T04:11:26.868Z,102037.53
2022-12-03T04:13:55.333Z,102044.91
2022-12-03T04:16:23.819Z,102040.53
2022-12-03T04:18:52.321Z,102035.66
2022-12-03T04:21:41.878Z,102044.38
2022-12-03T04:24:11.260Z,102047.81
2022-12-03T04:26:58.291Z,102043.94
2022-12-03T04:29:26.796Z,102040.63
2022-12-03T04:32:13.860Z,102042.59
2022-12-03T04:35:00.605Z,102045.13
2022-12-03T04:37:29.060Z,102050.09
2022-12-03T04:39:57.498Z,102045.38
2022-12-03T04:42:26.017Z,102036.13
2022-12-03T04:44:54.593Z,102039.72
2022-12-03T04:47:23.246Z,102030.31
2022-12-03T04:49:51.884Z,102034.53
2022-12-03T04:52:20.877Z,102037.88
2022-12-03T04:54:49.312Z,102044.03
2022-12-03T04:57:17.737Z,102036.81
2022-12-03T04:59:46.258Z,102038.91
2022-12-03T05:02:14.737Z,102032.53
2022-12-03T05:04:44.139Z,102043.28
2022-12-03T05:07:12.494Z,102036.47
2022-12-03T05:09:40.910Z,102034.34
2022-12-03T05:12:09.358Z,102033.25
2022-12-03T05:14:37.778Z,102024.56
2022-12-03T05:17:06.345Z,102019.31
2022-12-03T05:19:53.448Z,102019.22
2022-12-03T05:22:21.838Z,102019.78
2022-12-03T05:24:50.283Z,102008.25
2022-12-03T05:27:23.405Z,102013.94
2022-12-03T05:29:53.195Z,102013.72
2022-12-03T05:32:21.782Z,102005.97
2022-12-03T05:34:50.164Z,102022.88
2022-12-03T05:37:18.545Z,102008.38
2022-12-03T05:39:46.874Z,102014.44
2022-12-03T05:42:34.049Z,102013.63
2022-12-03T05:45:03.791Z,102012.56
2022-12-03T05:47:33.192Z,102013.31
2022-12-03T05:50:01.879Z,102008.22
2022-12-03T05:52:30.295Z,102009.28
2022-12-03T05:54:58.707Z,102004.75
2022-12-03T05:57:27.116Z,102006.50
2022-12-03T05:59:55.537Z,101987.31
2022-12-03T06:02:24.070Z,101994.69
2022-12-03T06:04:52.975Z,102001.34
2022-12-03T06:07:21.520Z,101999.25
2022-12-03T06:09:50.060Z,101997.56
2022-12-03T06:12:18.410Z,102001.22
2022-12-03T06:14:46.780Z,101991.44
2022-12-03T06:17:15.253Z,101992.75
2022-12-03T06:19:43.656Z,101998.06
2022-12-03T06:22:12.368Z,101997.06
2022-12-03T06:24:40.782Z,101994.59
2022-12-03T06:27:09.407Z,101991.34
2022-12-03T06:29:38.309Z,101999.16
2022-12-03T06:32:07.993Z,102004.16
2022-12-03T06:34:36.571Z,101998.50
2022-12-03T06:37:04.969Z,101982.72
2022-12-03T06:39:33.462Z,101987.66
2022-12-03T06:42:02.021Z,101993.75
2022-12-03T06:44:30.350Z,101991.22
2022-12-03T06:46:58.879Z,102003.13
2022-12-03T06:49:27.315Z,101990.78
2022-12-03T06:51:56.071Z,101984.81
2022-12-03T06:54:24.575Z,101991.22
2022-12-03T06:56:53.104Z,101990.19
2022-12-03T06:59:21.480Z,101990.38
2022-12-03T07:01:49.879Z,101986.16
2022-12-03T07:04:18.364Z,101987.69
2022-12-03T07:06:46.774Z,101991.06
2022-12-03T07:09:16.980Z,101981.88
2022-12-03T07:11:46.466Z,101990.88
2022-12-03T07:14:14.967Z,101986.69
2022-12-03T07:16:43.772Z,101986.75
2022-12-03T07:19:13.796Z,101991.16
2022-12-03T07:21:42.212Z,102000.94
2022-12-03T07:24:10.743Z,101994.06
2022-12-03T07:26:39.178Z,102012.25
2022-12-03T07:29:07.550Z,102000.00
2022-12-03T07:31:36.443Z,102002.78
2022-12-03T07:34:04.854Z,101985.53
2022-12-03T07:36:33.266Z,101989.50
2022-12-03T07:39:01.832Z,101987.72
2022-12-03T07:41:31.009Z,101985.66
2022-12-03T07:43:59.439Z,101988.56
2022-12-03T07:46:28.249Z,101985.31
2022-12-03T07:48:56.623Z,101990.75
2022-12-03T07:51:30.468Z,101990.16
2022-12-03T07:54:00.445Z,101995.16
2022-12-03T07:56:28.996Z,101991.91
2022-12-03T07:58:58.185Z,101996.81
2022-12-03T08:01:26.774Z,102003.84
2022-12-03T08:03:55.360Z,102005.53
2022-12-03T08:06:23.723Z,101995.56
2022-12-03T08:08:52.194Z,102005.94
2022-12-03T08:11:20.719Z,102003.91
2022-12-03T08:13:49.252Z,102013.22
2022-12-03T08:16:20.772Z,102004.81
2022-12-03T08:18:50.974Z,101998.38
2022-12-03T08:21:21.179Z,102002.34
2022-12-03T08:23:49.571Z,102005.94
2022-12-03T08:26:25.558Z,102007.81
2022-12-03T08:28:54.672Z,102023.13
2022-12-03T08:31:32.507Z,102008.41
2022-12-03T08:34:26.341Z,102005.19
2022-12-03T08:37:13.885Z,102002.00
2022-12-03T08:39:50.709Z,102003.56
2022-12-03T08:42:41.822Z,102014.19
2022-12-03T08:45:35.254Z,102014.88
2022-12-03T08:48:18.650Z,102005.31
2022-12-03T08:50:47.095Z,102009.19
2022-12-03T08:53:30.448Z,102011.78
2022-12-03T08:56:01.427Z,102010.19
2022-12-03T08:58:46.246Z,102015.09
2022-12-03T09:01:14.900Z,102015.13
2022-12-03T09:03:52.151Z,102019.88
2022-12-03T09:06:21.863Z,102029.50
2022-12-03T09:08:50.235Z,102026.47
2022-12-03T09:11:18.814Z,102027.97
2022-12-03T09:13:47.226Z,102023.84
2022-12-03T09:16:15.743Z,102023.06
2022-12-03T09:18:45.291Z,102019.00
2022-12-03T09:21:13.682Z,102026.94
2022-12-03T09:23:42.157Z,102021.75
2022-12-03T09:26:10.622Z,102018.41
2022-12-03T09:28:40.119Z,102023.97
2022-12-03T09:31:08.604Z,102019.16
2022-12-03T09:33:37.118Z,102025.13
2022-12-03T09:36:06.721Z,102016.88
2022-12-03T09:38:36.238Z,102022.97
2022-12-03T09:41:04.972Z,102013.59
2022-12-03T09:44:02.661Z,102021.56
2022-12-03T09:46:22.892Z,102020.63
2022-12-03T09:48:51.278Z,102007.66
2022-12-03T09:51:21.025Z,102008.00
2022-12-03T09:53:49.433Z,102007.66
2022-12-03T09:56:22.170Z,101995.16
2022-12-03T09:58:50.693Z,101991.81
2022-12-03T10:01:19.200Z,101993.25
2022-12-03T10:03:50.052Z,101995.50
2022-12-03T10:06:21.579Z,101998.25
2022-12-03T10:08:53.464Z,101996.81
2022-12-03T10:11:24.984Z,101992.78
2022-12-03T10:13:56.239Z,101999.91
2022-12-03T10:16:25.808Z,101988.13
2022-12-03T10:18:57.018Z,101982.75
2022-12-03T10:21:34.600Z,101980.53
2022-12-03T10:24:20.998Z,101977.19
2022-12-03T10:26:52.982Z,101973.63
2022-12-03T10:29:34.560Z,101966.94
2022-12-03T10:32:09.973Z,101968.47
2022-12-03T10:34:41.028Z,101964.63
2022-12-03T10:37:17.189Z,101950.16
2022-12-03T10:40:00.743Z,101953.09
2022-12-03T10:42:32.410Z,101958.19
2022-12-03T10:45:24.850Z,101942.66
2022-12-03T10:48:05.934Z,101943.66
2022-12-03T10:50:35.796Z,101931.63
2022-12-03T10:53:04.867Z,101930.91
2022-12-03T10:55:41.143Z,101932.19
2022-12-03T10:58:31.384Z,101938.75
2022-12-03T11:01:03.411Z,101935.78
2022-12-03T11:03:36.280Z,101934.66
2022-12-03T11:06:05.149Z,101940.81
2022-12-03T11:08:36.320Z,101932.91
2022-12-03T11:11:17.031Z,101932.47
2022-12-03T11:13:53.075Z,101930.78
2022-12-03T11:16:39.920Z,101928.69
2022-12-03T11:19:36.488Z,101920.13
2022-12-03T11:22:04.880Z,101915.47
2022-12-03T11:24:35.899Z,101913.72
2022-12-03T11:27:04.283Z,101912.31
2022-12-03T11:29:46.629Z,101914.78
2022-12-03T11:32:34.138Z,101911.72
2022-12-03T11:35:02.561Z,101908.22
2022-12-03T11:37:31.240Z,101918.66
2022-12-03T11:40:39.090Z,101900.00
2022-12-03T11:43:09.923Z,101894.69
2022-12-03T11:45:38.776Z,101882.84
2022-12-03T11:48:13.784Z,101888.16
2022-12-03T11:50:45.188Z,101888.16
2022-12-03T11:53:16.113Z,101882.09
2022-12-03T11:55:51.914Z,101878.81
2022-12-03T11:58:30.176Z,101884.50
2022-12-03T12:01:00.399Z,101887.09
2022-12-03T12:03:42.043Z,101882.97
2022-12-03T12:06:17.068Z,101880.38
2022-12-03T12:08:51.715Z,101882.63
2022-12-03T12:11:30.382Z,101881.69
2022-12-03T12:13:59.914Z,101877.19
2022-12-03T12:16:53.686Z,101864.53
2022-12-03T12:19:40.077Z,101869.44
2022-12-03T12:22:17.626Z,101858.78
2022-12-03T12:24:51.452Z,101860.88
2022-12-03T12:27:39.273Z,101861.75
2022-12-03T12:30:17.482Z,101847.78
2022-12-03T12:33:04.143Z,101845.78
2022-12-03T12:35:33.065Z,101832.66
2022-12-03T12:38:20.065Z,101841.31
2022-12-03T12:40:53.173Z,101837.66
2022-12-03T12:43:27.695Z,101834.88
2022-12-03T12:46:46.541Z,101827.66
2022-12-03T12:49:26.370Z,101824.09
2022-12-03T12:51:58.785Z,101822.63
2022-12-03T12:54:35.255Z,101824.78
2022-12-03T12:57:19.815Z,101821.81
2022-12-03T12:59:52.486Z,101827.56
2022-12-03T13:03:04.692Z,101822.31
2022-12-03T13:05:45.391Z,101817.34
2022-12-03T13:08:39.657Z,101815.53
2022-12-03T13:11:51.862Z,101803.44
2022-12-03T13:14:26.174Z,101798.31
2022-12-03T13:17:00.008Z,101788.31
2022-12-03T13:19:39.640Z,101797.75
2022-12-03T13:22:23.251Z,101789.34
2022-12-03T13:24:59.631Z,101800.66
2022-12-03T13:27:30.178Z,101792.78
2022-12-03T13:30:10.257Z,101791.06
2022-12-03T13:32:44.362Z,101798.28
2022-12-03T13:35:28.245Z,101796.38
2022-12-03T13:37:59.296Z,101798.88
2022-12-03T13:40:36.495Z,101791.06
2022-12-03T13:43:19.114Z,101791.06
2022-12-03T13:45:55.257Z,101787.47
2022-12-03T13:48:42.852Z,101790.53
2022-12-03T13:51:33.401Z,101775.09
2022-12-03T13:54:14.383Z,101781.78
2022-12-03T13:56:57.405Z,101782.78
2022-12-03T13:59:30.552Z,101786.16
2022-12-03T14:02:05.991Z,101781.72
2022-12-03T14:04:37.779Z,101777.75
2022-12-03T14:07:14.247Z,101775.22
2022-12-03T14:09:51.523Z,101771.38
2022-12-03T14:12:34.030Z,101772.09
2022-12-03T14:15:05.466Z,101770.13
2022-12-03T14:17:34.529Z,101766.19
2022-12-03T14:20:06.773Z,101767.53
2022-12-03T14:22:41.970Z,101765.22
2022-12-03T14:25:15.999Z,101762.22
2022-12-03T14:28:08.774Z,101774.50
2022-12-03T14:30:39.808Z,101772.66
2022-12-03T14:33:08.792Z,101783.41
2022-12-03T14:35:37.913Z,101766.59
2022-12-03T14:38:06.320Z,101769.16
2022-12-03T14:40:34.777Z,101759.56
2022-12-03T14:43:03.459Z,101762.03
2022-12-03T14:45:32.906Z,101759.16
2022-12-03T14:48:01.420Z,101753.19
2022-12-03T14:50:30.235Z,101767.75
2022-12-03T14:52:58.688Z,101765.72
2022-12-03T14:55:27.233Z,101750.09
2022-12-03T14:57:55.639Z,101760.81
2022-12-03T15:00:24.261Z,101752.31
2022-12-03T15:02:52.733Z,101749.59
2022-12-03T15:05:27.989Z,101748.78
2022-12-03T15:07:58.166Z,101745.53
2022-12-03T15:10:26.586Z,101749.56
2022-12-03T15:12:54.946Z,101747.44
2022-12-03T15:15:24.408Z,101732.31
2022-12-03T15:17:52.905Z,101745.97
2022-12-03T15:20:21.366Z,101745.72
2022-12-03T15:22:50.827Z,101740.63
2022-12-03T15:25:25.409Z,101744.81
2022-12-03T15:27:53.899Z,101741.38
2022-12-03T15:30:22.381Z,101746.56
2022-12-03T15:32:50.925Z,101757.09
2022-12-03T15:35:20.320Z,101761.41
2022-12-03T15:37:48.840Z,101761.38
2022-12-03T15:40:17.386Z,101758.50
2022-12-03T15:42:45.825Z,101749.13
2022-12-03T15:45:15.523Z,101766.56
2022-12-03T15:47:44.480Z,101758.91
2022-12-03T15:50:14.175Z,101763.44
2022-12-03T15:52:42.701Z,101762.34
2022-12-03T15:55:11.562Z,101769.88
2022-12-03T15:57:40.034Z,101770.00
2022-12-03T16:00:10.834Z,101755.66
2022-12-03T16:02:40.755Z,101756.16
2022-12-03T16:05:11.808Z,101747.84
2022-12-03T16:07:40.911Z,101745.09
2022-12-03T16:10:10.823Z,101748.00
2022-12-03T16:12:39.482Z,101756.25
2022-12-03T16:15:08.327Z,101758.53
2022-12-03T16:17:36.786Z,101749.88
2022-12-03T16:20:06.713Z,101754.22
2022-12-03T16:22:35.150Z,101742.53
2022-12-03T16:25:05.114Z,101731.50
2022-12-03T16:27:33.749Z,101737.78
2022-12-03T16:30:02.353Z,101729.69
2022-12-03T16:32:30.840Z,101742.09
2022-12-03T16:34:59.291Z,101745.94
2022-12-03T16:37:27.731Z,101748.28
2022-12-03T16:39:56.504Z,101737.34
2022-12-03T16:42:27.238Z,101732.16
2022-12-03T16:45:22.810Z,101731.03
2022-12-03T16:47:51.149Z,101735.31
2022-12-03T16:50:25.881Z,101724.53
2022-12-03T16:52:58.075Z,101731.66
2022-12-03T16:55:26.448Z,101731.53
2022-12-03T16:57:54.875Z,101731.13
2022-12-03T17:00:23.435Z,101726.59
2022-12-03T17:02:51.961Z,101735.84
2022-12-03T17:05:20.455Z,101732.31
2022-12-03T17:07:49.017Z,101733.28
2022-12-03T17:10:17.546Z,101735.22
2022-12-03T17:13:08.923Z,101738.19
2022-12-03T17:15:34.824Z,101737.44
2022-12-03T17:18:06.437Z,101740.53
2022-12-03T17:20:35.831Z,101729.84
2022-12-03T17:23:04.255Z,101732.03
2022-12-03T17:25:34.154Z,101735.50
2022-12-03T17:28:02.666Z,101726.84
2022-12-03T17:30:31.051Z,101718.88
2022-12-03T17:32:59.439Z,101717.22
2022-12-03T17:35:28.554Z,101710.63
2022-12-03T17:37:57.007Z,101712.31
2022-12-03T17:40:25.376Z,101716.84
2022-12-03T17:42:53.830Z,101715.22
2022-12-03T17:45:22.234Z,101711.69
2022-12-03T17:47:50.753Z,101701.34
2022-12-03T17:50:19.562Z,101697.56
2022-12-03T17:52:48.002Z,101703.34
2022-12-03T17:55:26.478Z,101702.56
2022-12-03T17:58:02.616Z,101709.56
2022-12-03T18:00:31.494Z,101707.75
2022-12-03T18:02:59.923Z,101713.47
2022-12-03T18:05:28.368Z,101709.03
2022-12-03T18:07:56.878Z,101708.91
2022-12-03T18:10:25.514Z,101713.59
2022-12-03T18:12:58.333Z,101708.06
2022-12-03T18:15:31.092Z,101710.19
2022-12-03T18:17:59.595Z,101704.44
2022-12-03T18:20:28.241Z,101710.00
2022-12-03T18:22:58.899Z,101705.34
2022-12-03T18:25:28.272Z,101703.81
2022-12-03T18:27:57.312Z,101708.19
2022-12-03T18:30:25.710Z,101709.47
2022-12-03T18:32:54.424Z,101714.03
2022-12-03T18:35:22.987Z,101716.69
2022-12-03T18:37:51.725Z,101714.03
2022-12-03T18:40:23.357Z,101698.59
2022-12-03T18:42:51.768Z,101697.63
2022-12-03T18:45:20.544Z,101703.72
2022-12-03T18:47:49.223Z,101706.78
2022-12-03T18:50:17.692Z,101701.06
2022-12-03T18:52:46.091Z,101709.34
2022-12-03T18:55:19.164Z,101706.91
2022-12-03T18:57:47.538Z,101708.84
2022-12-03T19:00:17.553Z,101705.72
2022-12-03T19:03:03.461Z,101702.66
2022-12-03T19:05:34.409Z,101695.44
2022-12-03T19:08:03.493Z,101691.91
2022-12-03T19:10:32.935Z,101693.50
2022-12-03T19:13:01.444Z,101688.69
2022-12-03T19:15:30.834Z,101689.00
2022-12-03T19:17:59.270Z,101681.97
2022-12-03T19:20:28.779Z,101678.06
2022-12-03T19:22:57.286Z,101695.44
2022-12-03T19:25:25.813Z,101687.03
2022-12-03T19:27:55.094Z,101698.91
2022-12-03T19:30:23.692Z,101693.81
2022-12-03T19:32:52.179Z,101689.38
2022-12-03T19:35:24.978Z,101692.00
2022-12-03T19:37:53.536Z,101690.41
2022-12-03T19:40:22.020Z,101689.03
2022-12-03T19:42:50.432Z,101689.94
2022-12-03T19:45:18.866Z,101695.94
2022-12-03T19:47:47.280Z,101696.25
2022-12-03T19:50:22.623Z,101686.03
2022-12-03T19:52:51.937Z,101682.47
2022-12-03T19:55:20.579Z,101691.38
2022-12-03T19:57:49.220Z,101682.78
2022-12-03T20:00:17.995Z,101676.13
2022-12-03T20:02:49.233Z,101677.47
2022-12-03T20:05:17.820Z,101675.38
2022-12-03T20:07:46.347Z,101676.19
2022-12-03T20:10:14.850Z,101673.16
2022-12-03T20:12:43.286Z,101685.41
2022-12-03T20:15:13.401Z,101686.06
2022-12-03T20:17:41.830Z,101681.94
2022-12-03T20:20:10.722Z,101694.13
2022-12-03T20:22:39.201Z,101678.47
2022-12-03T20:25:08.009Z,101686.59
2022-12-03T20:27:36.738Z,101682.50
2022-12-03T20:30:05.880Z,101676.72
2022-12-03T20:32:37.298Z,101678.91
2022-12-03T20:35:09.717Z,101672.66
2022-12-03T20:37:38.115Z,101681.94
2022-12-03T20:40:07.205Z,101678.84
2022-12-03T20:42:35.601Z,101677.97
2022-12-03T20:45:04.388Z,101674.88
2022-12-03T20:47:32.754Z,101664.66
2022-12-03T20:50:01.202Z,101662.03
2022-12-03T20:52:29.663Z,101658.97
2022-12-03T20:54:58.107Z,101668.59
2022-12-03T20:57:26.546Z,101662.09
2022-12-03T20:59:56.008Z,101670.84
2022-12-03T21:02:24.652Z,101672.03
2022-12-03T21:04:53.601Z,101664.34
2022-12-03T21:07:22.054Z,101668.19
2022-12-03T21:09:50.776Z,101660.63
2022-12-03T21:12:19.122Z,101652.34
2022-12-03T21:14:47.570Z,101656.66
2022-12-03T21:17:16.056Z,101656.91
2022-12-03T21:19:46.817Z,101648.31
2022-12-03T21:22:15.315Z,101666.50
2022-12-03T21:24:44.816Z,101652.34
2022-12-03T21:27:17.104Z,101650.97
2022-12-03T21:29:49.888Z,101646.59
2022-12-03T21:32:18.378Z,101635.31
2022-12-03T21:34:46.790Z,101654.38
2022-12-03T21:37:15.240Z,101655.22
2022-12-03T21:39:43.659Z,101650.88
2022-12-03T21:42:36.241Z,101640.75
2022-12-03T21:45:00.441Z,101639.75
2022-12-03T21:47:33.519Z,101625.31
2022-12-03T21:50:07.346Z,101629.28
2022-12-03T21:52:35.733Z,101619.41
2022-12-03T21:55:04.402Z,101619.03
2022-12-03T21:57:35.722Z,101635.66
2022-12-03T22:00:08.638Z,101634.34
2022-12-03T22:02:39.065Z,101632.78
2022-12-03T22:05:09.090Z,101641.72
2022-12-03T22:07:38.760Z,101647.78
2022-12-03T22:10:09.822Z,101647.44
2022-12-03T22:12:40.629Z,101653.13
2022-12-03T22:15:16.593Z,101647.31
2022-12-03T22:17:47.705Z,101652.81
2022-12-03T22:20:16.326Z,101655.81
2022-12-03T22:22:44.736Z,101643.59
2022-12-03T22:25:13.158Z,101640.28
2022-12-03T22:27:41.555Z,101642.59
2022-12-03T22:30:10.148Z,101638.22
2022-12-03T22:32:38.643Z,101633.69
2022-12-03T22:35:07.422Z,101631.19
2022-12-03T22:37:35.972Z,101633.84
2022-12-03T22:40:05.068Z,101638.00
2022-12-03T22:42:33.529Z,101631.81
2022-12-03T22:45:01.946Z,101629.19
2022-12-03T22:47:31.342Z,101623.97
2022-12-03T22:49:59.709Z,101621.03
2022-12-03T22:52:28.119Z,101625.94
2022-12-03T22:54:56.536Z,101620.66
2022-12-03T22:57:24.917Z,101627.16
2022-12-03T22:59:53.692Z,101623.34
2022-12-03T23:02:22.332Z,101625.56
2022-12-03T23:04:50.788Z,101623.41
2022-12-03T23:07:19.188Z,101614.59
2022-12-03T23:09:48.714Z,101618.66
2022-12-03T23:12:17.136Z,101618.56
2022-12-03T23:14:45.547Z,101619.38
2022-12-03T23:17:13.910Z,101622.69
2022-12-03T23:19:42.413Z,101626.09
2022-12-03T23:22:10.759Z,101617.56
2022-12-03T23:24:40.263Z,101617.47
2022-12-03T23:27:08.670Z,101612.44
2022-12-03T23:29:37.019Z,101618.41
2022-12-03T23:32:05.423Z,101610.38
2022-12-03T23:34:33.987Z,101612.69
2022-12-03T23:37:02.503Z,101614.06
2022-12-03T23:39:30.890Z,101607.47
2022-12-03T23:41:59.257Z,101615.25
2022-12-03T23:44:28.032Z,101623.75
2022-12-03T23:46:56.574Z,101608.88
2022-12-03T23:49:25.123Z,101601.84
2022-12-03T23:51:53.614Z,101605.44
2022-12-03T23:54:22.174Z,101595.53
2022-12-03T23:56:50.538Z,101591.28
2022-12-03T23:59:18.909Z,101593.34
